WetterOnline ( https://www.wetteronline.de )

Wetter aktuell Ostrava

Aktuelles Wetter: Ostrava (260m)

6-stündlich | Neueste Meldungen
Ortszeit Temperatur Wetter
Mi, 24.04. 14:00 20.4° C wolkig
Mi, 24.04. 8:00 13.6° C wolkig
Mi, 24.04. 2:00 11.5° C wolkig
Di, 23.04. 20:00 11.8° C leichter Regen
Di, 23.04. 14:00 17.3° C bewölkt
Di, 23.04. 8:00 9.6° C leicht bewölkt
Di, 23.04. 2:00 8.0° C wolkenlos
Mo, 22.04. 20:00 14.0° C fast wolkenlos
Ortszeit Temperatur Wetter
Mi, 24.04. 18:00 19.3° C wolkig
Mi, 24.04. 17:30 19° C -
Mi, 24.04. 17:00 19.8° C bewölkt
Mi, 24.04. 16:30 20° C -
Mi, 24.04. 16:00 20.2° C wolkig
Mi, 24.04. 15:30 21° C leicht bewölkt
Mi, 24.04. 15:00 20.8° C wolkig
Ortszeit Relative Feuchte Sichtweite
Mi, 24.04. 14:00 48% 25 km
Mi, 24.04. 8:00 67% 15 km
Mi, 24.04. 2:00 68% 15 km
Di, 23.04. 20:00 69% 12 km
Di, 23.04. 14:00 41% 30 km
Di, 23.04. 8:00 75% 20 km
Di, 23.04. 2:00 71% 25 km
Mo, 22.04. 20:00 49% 30 km
Ortszeit Relative Feuchte Sichtweite
Mi, 24.04. 18:00 49% 25 km
Mi, 24.04. 17:30 52% >10 km
Mi, 24.04. 17:00 48% 25 km
Mi, 24.04. 16:30 49% >10 km
Mi, 24.04. 16:00 47% 25 km
Mi, 24.04. 15:30 46% >10 km
Mi, 24.04. 15:00 45% 25 km
Ortszeit Niederschlagsmenge Niederschlagsart
Mi, 24.04. 14:00 0.0 l/m2 in 6 Std. -
Mi, 24.04. 8:00 0.7 l/m2 in 12 Std. -
Mi, 24.04. 2:00 0.7 l/m2 in 6 Std. Regen
Di, 23.04. 20:00 0.1 l/m2 in 12 Std. Regen
Di, 23.04. 14:00 0.0 l/m2 in 6 Std. -
Di, 23.04. 8:00 0.0 l/m2 in 12 Std. -
Di, 23.04. 2:00 0.0 l/m2 in 6 Std. -
Mo, 22.04. 20:00 0.0 l/m2 in 12 Std. -
Ortszeit Niederschlagsmenge Niederschlagsart
Mi, 24.04. 18:00 0.0 l/m2 in 1 Std. -
Mi, 24.04. 17:30 keine Meldung -
Mi, 24.04. 17:00 0.0 l/m2 in 1 Std. -
Mi, 24.04. 16:30 keine Meldung -
Mi, 24.04. 16:00 0.0 l/m2 in 1 Std. -
Mi, 24.04. 15:30 keine Meldung -
Mi, 24.04. 15:00 0.0 l/m2 in 1 Std. -
Ortszeit Stärke Spitze Richtung
km/h Bft. km/h Grad Sektor
Mi, 24.04. 14:00 18 3 40 180° S
Mi, 24.04. 8:00 7 2 - uml. uml.
Mi, 24.04. 2:00 7 2 - uml. uml.
Di, 23.04. 20:00 7 2 - uml. uml.
Di, 23.04. 14:00 14 3 - 170° S
Di, 23.04. 8:00 14 3 - 40° NO
Di, 23.04. 2:00 14 3 - 40° NO
Mo, 22.04. 20:00 18 3 40 50° NO
Ortszeit Stärke Spitze Richtung
km/h Bft. km/h Grad Sektor
Mi, 24.04. 18:00 22 4 - 170° S
Mi, 24.04. 17:30 19 3 - 170° S
Mi, 24.04. 17:00 18 3 47 180° S
Mi, 24.04. 16:30 26 4 - 190° S
Mi, 24.04. 16:00 25 4 47 190° S
Mi, 24.04. 15:30 24 4 44 180° S
Mi, 24.04. 15:00 22 4 47 170° S
Ortszeit Untergrenze Bedeckung Gattung
total tief tief mittel hoch
Mi, 24.04. 14:00 1410 m 5/8 5/8 Cu As Ci
Mi, 24.04. 8:00 1050 m 5/8 5/8 Sc Ac Ci
Mi, 24.04. 2:00 3000 m 8/8 8/8 - Ac -
Di, 23.04. 20:00 1080 m 8/8 8/8 Sc - -
Di, 23.04. 14:00 1800 m 7/8 7/8 Sc - -
Di, 23.04. 8:00 1800 m 4/8 4/8 Sc As Ci
Di, 23.04. 2:00 - 0/8 0/8 - - -
Mo, 22.04. 20:00 1800 m 1/8 1/8 Sc - -
Ortszeit Bedeckungsgrad in Achtel und Wolkenuntergrenze
Mi, 24.04. 18:00 6(1800m)
Mi, 24.04. 17:30 keine Wolken(unter 1500 m)
Mi, 24.04. 17:00 7(1500m)
Mi, 24.04. 16:30 keine Wolken(unter 1500 m)
Mi, 24.04. 16:00 6(1500m)
Mi, 24.04. 15:30 3-4(1410m)
Mi, 24.04. 15:00 5(1410m)
Ortszeit Luftdruck NN (hPa) Tendenz (hPa in 3 Std.)
Mi, 24.04. 14:00 1013 - 0,5
Mi, 24.04. 8:00 1013 + 0,6
Mi, 24.04. 2:00 1013 - 1,1
Di, 23.04. 20:00 1015 + 0,5
Di, 23.04. 14:00 1014 0,0
Di, 23.04. 8:00 1014 - 0,2
Di, 23.04. 2:00 1016 - 1,1
Mo, 22.04. 20:00 1016 + 0,3
Ortszeit Luftdruck NN (hPa) Tendenz (hPa in 3 Std.)
Mi, 24.04. 18:00 1012 + 0,2
Mi, 24.04. 17:30 1013 keine Meldung
Mi, 24.04. 17:00 1013 + 0,1
Mi, 24.04. 16:30 1013 keine Meldung
Mi, 24.04. 16:00 1012 - 0,5
Mi, 24.04. 15:30 1012 keine Meldung
Mi, 24.04. 15:00 1012 - 0,8
Ortszeit Schneehöhe (cm)
Mi, 24.04. 14:00 -
Mi, 24.04. 8:00 -
Mi, 24.04. 2:00 -
Di, 23.04. 20:00 -
Di, 23.04. 14:00 -
Di, 23.04. 8:00 0
Di, 23.04. 2:00 -
Mo, 22.04. 20:00 -
Ortszeit Schneehöhe (cm)
Mi, 24.04. 18:00 -
Mi, 24.04. 17:30 -
Mi, 24.04. 17:00 -
Mi, 24.04. 16:30 -
Mi, 24.04. 16:00 -
Mi, 24.04. 15:30 -
Mi, 24.04. 15:00 -
Link zu dieser Seite / Seite empfehlen

Das Wetter in ...